createdAt,value
2018-11-25T06:33:47.574Z,28.65
2018-11-25T06:36:44.444Z,28.20
2018-11-25T06:39:43.055Z,26.45
2018-11-25T06:42:40.364Z,27.62
2018-11-25T06:45:47.340Z,26.27
2018-11-25T06:49:05.582Z,27.07
2018-11-25T06:52:14.285Z,26.85
2018-11-25T06:55:24.961Z,27.40
2018-11-25T06:58:33.829Z,31.20
2018-11-25T07:01:39.527Z,27.27
2018-11-25T07:04:37.008Z,27.82
2018-11-25T07:07:35.676Z,27.67
2018-11-25T07:10:32.975Z,29.85
2018-11-25T07:13:30.118Z,50.98
2018-11-25T07:16:26.874Z,28.60
2018-11-25T07:19:23.506Z,27.27
2018-11-25T07:22:19.890Z,27.58
2018-11-25T07:25:23.381Z,27.73
2018-11-25T07:28:19.584Z,27.22
2018-11-25T07:31:16.606Z,27.80
2018-11-25T07:34:13.130Z,28.42
2018-11-25T07:37:27.524Z,29.15
2018-11-25T07:40:24.480Z,31.10
2018-11-25T07:43:24.631Z,30.80
2018-11-25T07:46:17.857Z,31.23
2018-11-25T07:49:14.379Z,29.45
2018-11-25T07:52:10.687Z,30.62
2018-11-25T07:55:07.018Z,30.17
2018-11-25T07:58:03.819Z,28.12
2018-11-25T08:01:00.238Z,29.55
2018-11-25T08:03:59.748Z,29.05
2018-11-25T08:06:56.418Z,29.23
2018-11-25T08:09:52.356Z,29.67
2018-11-25T08:12:48.719Z,28.98
2018-11-25T08:15:44.731Z,28.57
2018-11-25T08:18:41.239Z,28.25
2018-11-25T08:21:37.810Z,29.82
2018-11-25T08:24:34.899Z,27.25
2018-11-25T08:27:34.479Z,26.30
2018-11-25T08:30:30.614Z,26.57
2018-11-25T08:33:26.359Z,27.20
2018-11-25T08:36:23.020Z,26.10
2018-11-25T08:39:20.013Z,25.70
2018-11-25T08:42:15.903Z,26.40
2018-11-25T08:45:12.945Z,26.52
2018-11-25T08:48:09.294Z,26.75
2018-11-25T08:51:05.396Z,27.75
2018-11-25T08:54:01.824Z,28.23
2018-11-25T08:56:58.566Z,27.02
2018-11-25T08:59:54.884Z,27.02
2018-11-25T09:02:51.207Z,26.48
2018-11-25T09:05:48.026Z,25.10
2018-11-25T09:08:47.019Z,26.57
2018-11-25T09:11:44.195Z,24.75
2018-11-25T09:14:40.918Z,24.85
2018-11-25T09:17:37.405Z,24.23
2018-11-25T09:20:33.745Z,24.50
2018-11-25T09:23:30.315Z,24.77
2018-11-25T09:26:26.563Z,24.87
2018-11-25T09:29:23.464Z,24.20
2018-11-25T09:32:23.148Z,24.45
2018-11-25T09:35:16.427Z,25.15
2018-11-25T09:38:12.647Z,24.80
2018-11-25T09:41:08.746Z,22.85
2018-11-25T09:44:05.130Z,23.60
2018-11-25T09:47:01.740Z,23.85
2018-11-25T09:50:00.250Z,22.80
2018-11-25T09:52:56.517Z,23.30
2018-11-25T09:55:52.938Z,23.22
2018-11-25T09:58:49.387Z,22.75
2018-11-25T10:01:46.012Z,23.40
2018-11-25T10:04:42.219Z,22.95
2018-11-25T10:07:38.415Z,22.42
2018-11-25T10:10:34.782Z,23.10
2018-11-25T10:13:31.453Z,26.27
2018-11-25T10:16:28.077Z,23.40
2018-11-25T10:19:24.322Z,23.07
2018-11-25T10:22:20.330Z,22.95
2018-11-25T10:25:17.460Z,23.83
2018-11-25T10:28:14.098Z,24.80
2018-11-25T10:31:10.599Z,23.35
2018-11-25T10:34:07.540Z,23.80
2018-11-25T10:37:04.331Z,24.47
2018-11-25T10:40:00.978Z,22.93
2018-11-25T10:42:57.375Z,25.60
2018-11-25T10:45:53.796Z,24.80
2018-11-25T10:48:54.252Z,27.95
2018-11-25T10:51:46.936Z,24.77
2018-11-25T10:54:43.470Z,25.45
2018-11-25T10:57:39.444Z,24.60
2018-11-25T11:00:53.793Z,25.65
2018-11-25T11:04:01.356Z,26.33
2018-11-25T11:07:14.002Z,25.72
2018-11-25T11:10:10.869Z,27.85
2018-11-25T11:13:07.111Z,25.80
2018-11-25T11:16:03.972Z,26.27
2018-11-25T11:19:00.018Z,26.85
2018-11-25T11:21:56.377Z,27.13
2018-11-25T11:24:52.692Z,26.82
2018-11-25T11:27:48.798Z,26.85
2018-11-25T11:30:48.694Z,26.12
2018-11-25T11:33:44.800Z,31.57
2018-11-25T11:36:40.965Z,27.40
2018-11-25T11:39:38.077Z,28.70
2018-11-25T11:42:34.501Z,28.15
2018-11-25T11:45:31.608Z,29.23
2018-11-25T11:48:28.232Z,29.92
2018-11-25T11:51:27.341Z,29.67
2018-11-25T11:54:23.356Z,29.07
2018-11-25T11:57:19.520Z,30.40
2018-11-25T12:00:26.454Z,29.85
2018-11-25T12:03:26.623Z,30.17
2018-11-25T12:06:19.259Z,32.03
2018-11-25T12:09:16.254Z,29.50
2018-11-25T12:12:12.778Z,32.23
2018-11-25T12:15:08.808Z,34.55
2018-11-25T12:18:05.546Z,35.45
2018-11-25T12:21:05.086Z,33.20
2018-11-25T12:24:01.460Z,35.25
2018-11-25T12:26:57.996Z,34.90
2018-11-25T12:29:54.582Z,36.63
2018-11-25T12:32:52.107Z,40.80
2018-11-25T12:35:48.785Z,40.80
2018-11-25T12:38:45.340Z,42.67
2018-11-25T12:41:42.012Z,38.02
2018-11-25T12:44:38.585Z,36.75
2018-11-25T12:47:34.738Z,37.45
2018-11-25T12:50:32.523Z,40.15
2018-11-25T12:53:29.128Z,44.98
2018-11-25T12:56:25.481Z,43.35
2018-11-25T12:59:21.630Z,43.63
2018-11-25T13:02:18.272Z,44.35
2018-11-25T13:05:15.161Z,43.60
2018-11-25T13:08:14.722Z,44.60
2018-11-25T13:11:11.491Z,46.18
2018-11-25T13:14:07.680Z,48.40
2018-11-25T13:17:03.953Z,46.08
2018-11-25T13:20:03.159Z,46.25
2018-11-25T13:22:59.749Z,47.03
2018-11-25T13:25:56.027Z,44.45
2018-11-25T13:28:52.657Z,44.58
2018-11-25T13:31:49.139Z,45.15
2018-11-25T13:34:45.212Z,50.40
2018-11-25T13:37:41.288Z,48.95
2018-11-25T13:40:38.211Z,50.40
2018-11-25T13:43:34.518Z,46.42
2018-11-25T13:46:30.671Z,54.70
2018-11-25T13:49:27.297Z,69.97
2018-11-25T13:52:23.647Z,73.57
2018-11-25T13:55:24.604Z,74.15
2018-11-25T13:58:21.008Z,66.47
2018-11-25T14:01:17.204Z,63.83
2018-11-25T14:04:13.494Z,78.37
2018-11-25T14:07:10.386Z,203.55
2018-11-25T14:10:06.594Z,320.75
2018-11-25T14:13:02.849Z,542.83
2018-11-25T14:15:59.037Z,403.82
2018-11-25T14:18:58.454Z,330.98
2018-11-25T14:21:55.099Z,159.32
2018-11-25T14:24:52.053Z,91.12
2018-11-25T14:27:48.734Z,108.70
2018-11-25T14:30:45.665Z,82.08
2018-11-25T14:33:41.568Z,72.85
2018-11-25T14:36:38.406Z,97.02
2018-11-25T14:39:35.328Z,108.57
2018-11-25T14:42:32.680Z,115.45
2018-11-25T14:45:29.437Z,107.65
2018-11-25T14:48:26.212Z,115.60
2018-11-25T14:51:22.619Z,93.07
2018-11-25T14:54:20.159Z,89.62
2018-11-25T14:57:16.572Z,92.95
2018-11-25T15:00:18.879Z,89.80
2018-11-25T15:03:15.954Z,88.35
2018-11-25T15:06:12.432Z,87.42
2018-11-25T15:09:09.317Z,97.33
2018-11-25T15:12:06.156Z,97.72
2018-11-25T15:15:02.194Z,102.35
2018-11-25T15:17:58.722Z,101.05
2018-11-25T15:20:55.030Z,110.83
2018-11-25T15:23:51.113Z,105.58
2018-11-25T15:26:47.312Z,102.75
2018-11-25T15:29:43.689Z,103.05
2018-11-25T15:32:40.407Z,107.63
2018-11-25T15:35:37.518Z,108.72
2018-11-25T15:38:34.796Z,107.47
2018-11-25T15:41:32.096Z,103.97
2018-11-25T15:44:29.863Z,108.22
2018-11-25T15:47:27.270Z,103.97
2018-11-25T15:50:29.456Z,93.30
2018-11-25T15:53:26.635Z,77.50
2018-11-25T15:56:23.790Z,74.17
2018-11-25T15:59:20.788Z,75.28
2018-11-25T16:02:17.807Z,74.37
2018-11-25T16:05:16.151Z,73.42
2018-11-25T16:08:12.858Z,72.65
2018-11-25T16:11:09.987Z,75.28
2018-11-25T16:14:06.872Z,73.90
2018-11-25T16:17:04.563Z,78.02
2018-11-25T16:20:01.305Z,83.30
2018-11-25T16:23:22.389Z,81.97
2018-11-25T16:26:24.671Z,84.75
2018-11-25T16:29:26.602Z,79.17
2018-11-25T16:32:22.686Z,77.70
2018-11-25T16:35:19.145Z,75.00
2018-11-25T16:38:16.061Z,72.87
2018-11-25T16:41:12.120Z,74.12
2018-11-25T16:44:08.343Z,76.82
2018-11-25T16:47:05.052Z,72.82
2018-11-25T16:50:00.865Z,73.25
2018-11-25T16:52:57.446Z,77.15
2018-11-25T16:55:53.420Z,87.00
2018-11-25T16:58:49.793Z,89.00
2018-11-25T17:01:46.187Z,86.95
2018-11-25T17:04:42.596Z,83.20
2018-11-25T17:07:41.589Z,84.65
2018-11-25T17:10:38.425Z,81.85
2018-11-25T17:13:35.288Z,86.25
2018-11-25T17:16:31.857Z,86.02
2018-11-25T17:19:28.121Z,78.47
2018-11-25T17:22:24.443Z,79.55
2018-11-25T17:25:20.951Z,78.52
2018-11-25T17:28:20.092Z,74.85
2018-11-25T17:31:16.725Z,75.42
2018-11-25T17:34:13.354Z,81.10
2018-11-25T17:37:10.543Z,79.47
2018-11-25T17:40:07.005Z,72.78
2018-11-25T17:43:03.435Z,73.70
2018-11-25T17:46:00.592Z,67.45
2018-11-25T17:48:57.259Z,67.62
2018-11-25T17:51:53.871Z,65.72
2018-11-25T17:54:50.189Z,65.52
2018-11-25T17:57:46.581Z,66.15
2018-11-25T18:00:58.606Z,62.53
2018-11-25T18:03:57.699Z,64.12
2018-11-25T18:06:53.686Z,64.17
2018-11-25T18:09:49.678Z,64.20
2018-11-25T18:12:45.799Z,63.70
2018-11-25T18:15:41.979Z,64.60
2018-11-25T18:18:52.472Z,67.90
2018-11-25T18:21:48.606Z,69.12
2018-11-25T18:24:45.504Z,70.00
2018-11-25T18:27:42.131Z,67.25
2018-11-25T18:30:38.218Z,66.82
2018-11-25T18:33:35.165Z,69.87
2018-11-25T18:36:32.132Z,66.35
2018-11-25T18:39:28.181Z,65.37
2018-11-25T18:42:24.801Z,62.15
2018-11-25T18:45:25.174Z,62.00
2018-11-25T18:48:22.577Z,61.45
2018-11-25T18:51:19.240Z,60.80
2018-11-25T18:54:16.159Z,57.10
2018-11-25T18:57:12.715Z,58.60
2018-11-25T19:00:11.548Z,58.38
2018-11-25T19:03:07.572Z,58.38
2018-11-25T19:06:03.912Z,60.05
2018-11-25T19:09:00.386Z,59.93
2018-11-25T19:11:56.689Z,62.40
2018-11-25T19:14:52.980Z,59.83
2018-11-25T19:17:49.623Z,54.70
2018-11-25T19:20:49.305Z,54.10
2018-11-25T19:23:45.656Z,55.12
2018-11-25T19:26:41.712Z,53.08
2018-11-25T19:29:37.904Z,53.10
2018-11-25T19:32:35.265Z,53.38
2018-11-25T19:35:31.537Z,54.05
2018-11-25T19:38:27.781Z,54.18
2018-11-25T19:41:24.445Z,53.02
2018-11-25T19:44:21.053Z,53.87
2018-11-25T19:47:17.461Z,54.53
2018-11-25T19:50:20.913Z,55.58
2018-11-25T19:53:17.758Z,56.30
2018-11-25T19:56:13.997Z,56.42
2018-11-25T19:59:22.649Z,58.23
2018-11-25T20:02:11.203Z,57.13
2018-11-25T20:05:08.121Z,59.33
2018-11-25T20:08:05.076Z,58.13
2018-11-25T20:11:02.018Z,56.40
2018-11-25T20:13:59.115Z,56.48
2018-11-25T20:17:11.806Z,57.88
2018-11-25T20:20:08.649Z,55.52
2018-11-25T20:23:05.291Z,55.10
2018-11-25T20:26:02.125Z,55.90
2018-11-25T20:28:58.931Z,54.73
2018-11-25T20:32:11.730Z,55.55
2018-11-25T20:35:08.942Z,54.80
2018-11-25T20:38:22.185Z,54.45
2018-11-25T20:41:24.319Z,53.83
2018-11-25T20:44:21.143Z,56.40
2018-11-25T20:47:17.794Z,54.70
2018-11-25T20:50:16.435Z,53.08
2018-11-25T20:53:30.164Z,53.70
2018-11-25T20:56:29.578Z,53.92
2018-11-25T20:59:26.364Z,57.00
2018-11-25T21:02:28.976Z,77.40
2018-11-25T21:05:19.820Z,91.63
2018-11-25T21:08:17.286Z,99.47
2018-11-25T21:11:13.557Z,108.20
2018-11-25T21:14:10.784Z,108.70
2018-11-25T21:17:07.294Z,110.45
2018-11-25T21:20:03.915Z,112.83
2018-11-25T21:23:00.214Z,112.60
2018-11-25T21:25:56.608Z,111.65
2018-11-25T21:28:53.238Z,110.95
2018-11-25T21:31:49.699Z,111.80
2018-11-25T21:34:45.847Z,109.80
2018-11-25T21:37:42.466Z,110.70
2018-11-25T21:40:39.496Z,108.25
2018-11-25T21:43:35.615Z,104.05
2018-11-25T21:46:32.100Z,105.70
2018-11-25T21:49:28.915Z,103.47
2018-11-25T21:52:24.925Z,103.42
2018-11-25T21:55:24.429Z,104.80
2018-11-25T21:58:20.683Z,101.82
2018-11-25T22:01:17.045Z,103.80
2018-11-25T22:04:13.432Z,104.00
2018-11-25T22:07:10.102Z,108.20
2018-11-25T22:10:09.707Z,109.60
2018-11-25T22:13:05.989Z,106.65
2018-11-25T22:16:05.439Z,106.32
2018-11-25T22:19:02.302Z,107.43
2018-11-25T22:21:57.870Z,106.70
2018-11-25T22:24:54.210Z,109.72
2018-11-25T22:27:50.323Z,113.50
2018-11-25T22:30:46.435Z,114.80
2018-11-25T22:33:42.846Z,112.62
2018-11-25T22:36:39.972Z,112.72
2018-11-25T22:39:36.300Z,112.08
2018-11-25T22:42:32.698Z,110.42
2018-11-25T22:45:29.119Z,111.83
2018-11-25T22:48:25.280Z,110.28
2018-11-25T22:51:21.895Z,111.68
2018-11-25T22:54:18.737Z,114.30
2018-11-25T22:57:15.075Z,115.92
2018-11-25T23:00:33.311Z,117.13
2018-11-25T23:03:30.317Z,117.17
2018-11-25T23:07:04.688Z,113.03
2018-11-25T23:10:01.195Z,111.75
2018-11-25T23:12:57.374Z,109.50
2018-11-25T23:15:53.238Z,106.55
2018-11-25T23:18:49.440Z,105.43
2018-11-25T23:21:45.703Z,104.97
2018-11-25T23:24:42.518Z,102.25
2018-11-25T23:27:39.209Z,99.10
2018-11-25T23:30:36.003Z,98.95
2018-11-25T23:33:35.298Z,97.30
2018-11-25T23:36:31.956Z,101.20
2018-11-25T23:39:28.661Z,99.80
2018-11-25T23:42:25.400Z,102.15
2018-11-25T23:45:22.428Z,103.17
2018-11-25T23:48:18.989Z,102.38
2018-11-25T23:51:15.121Z,106.10
2018-11-25T23:54:12.884Z,100.35
2018-11-25T23:57:11.825Z,100.97
